createdAt,value
2019-03-11T00:01:22.444Z,73.00
2019-03-11T00:03:51.827Z,72.43
2019-03-11T00:06:23.908Z,72.45
2019-03-11T00:08:53.039Z,72.18
2019-03-11T00:11:22.358Z,71.66
2019-03-11T00:13:51.406Z,71.19
2019-03-11T00:16:20.723Z,70.80
2019-03-11T00:18:49.784Z,70.45
2019-03-11T00:21:18.792Z,70.56
2019-03-11T00:23:48.126Z,69.95
2019-03-11T00:26:17.625Z,69.86
2019-03-11T00:28:47.303Z,69.23
2019-03-11T00:31:16.310Z,69.22
2019-03-11T00:33:45.372Z,69.34
2019-03-11T00:36:14.488Z,66.59
2019-03-11T00:38:43.506Z,67.07
2019-03-11T00:41:12.550Z,67.35
2019-03-11T00:43:41.552Z,66.52
2019-03-11T00:46:10.950Z,66.77
2019-03-11T00:48:39.992Z,66.78
2019-03-11T00:51:08.996Z,67.62
2019-03-11T00:53:38.668Z,69.24
2019-03-11T00:56:07.716Z,67.29
2019-03-11T00:58:36.740Z,67.30
2019-03-11T01:01:06.122Z,67.63
2019-03-11T01:03:35.190Z,67.55
2019-03-11T01:06:04.206Z,67.94
2019-03-11T01:08:33.206Z,68.72
2019-03-11T01:11:02.309Z,68.20
2019-03-11T01:13:31.305Z,67.72
2019-03-11T01:16:00.626Z,67.66
2019-03-11T01:18:30.397Z,67.04
2019-03-11T01:20:59.423Z,66.22
2019-03-11T01:23:28.699Z,65.91
2019-03-11T01:25:58.099Z,66.37
2019-03-11T01:28:27.418Z,65.77
2019-03-11T01:30:56.420Z,66.39
2019-03-11T01:33:25.430Z,65.53
2019-03-11T01:35:54.480Z,66.18
2019-03-11T01:38:23.504Z,65.80
2019-03-11T01:40:52.524Z,66.22
2019-03-11T01:43:21.534Z,65.40
2019-03-11T01:45:50.564Z,65.58
2019-03-11T01:48:19.959Z,66.44
2019-03-11T01:50:49.067Z,67.04
2019-03-11T01:53:18.088Z,67.79
2019-03-11T01:55:47.104Z,67.92
2019-03-11T01:58:16.128Z,68.31
2019-03-11T02:00:45.454Z,68.24
2019-03-11T02:03:14.450Z,68.44
2019-03-11T02:05:43.741Z,68.00
2019-03-11T02:08:12.762Z,67.93
2019-03-11T02:10:41.789Z,67.36
2019-03-11T02:13:11.236Z,66.74
2019-03-11T02:15:40.538Z,67.15
2019-03-11T02:18:09.943Z,67.09
2019-03-11T02:20:38.961Z,66.89
2019-03-11T02:23:08.381Z,67.74
2019-03-11T02:25:37.362Z,67.63
2019-03-11T02:28:06.747Z,68.49
2019-03-11T02:30:35.780Z,68.57
2019-03-11T02:33:04.872Z,69.34
2019-03-11T02:35:34.267Z,68.96
2019-03-11T02:38:03.293Z,68.65
2019-03-11T02:40:32.308Z,67.98
2019-03-11T02:43:01.624Z,68.23
2019-03-11T02:45:30.650Z,68.52
2019-03-11T02:47:59.698Z,68.58
2019-03-11T02:50:28.673Z,68.76
2019-03-11T02:52:57.707Z,69.23
2019-03-11T02:55:26.739Z,68.88
2019-03-11T02:57:55.811Z,69.43
2019-03-11T03:00:24.838Z,69.47
2019-03-11T03:03:04.089Z,70.58
2019-03-11T03:05:36.774Z,70.82
2019-03-11T03:08:05.925Z,71.24
2019-03-11T03:10:34.974Z,70.97
2019-03-11T03:13:04.003Z,71.69
2019-03-11T03:15:33.018Z,70.94
2019-03-11T03:18:02.060Z,71.22
2019-03-11T03:20:31.104Z,71.42
2019-03-11T03:23:00.484Z,71.54
2019-03-11T03:25:34.601Z,71.91
2019-03-11T03:28:00.717Z,72.33
2019-03-11T03:30:30.223Z,72.56
2019-03-11T03:32:59.272Z,72.50
2019-03-11T03:35:28.357Z,72.56
2019-03-11T03:37:57.362Z,73.15
2019-03-11T03:40:26.706Z,72.91
2019-03-11T03:42:56.114Z,72.91
2019-03-11T03:45:27.939Z,73.00
2019-03-11T03:47:57.785Z,73.16
2019-03-11T03:50:27.357Z,73.00
2019-03-11T03:52:56.416Z,73.03
2019-03-11T03:55:25.400Z,72.50
2019-03-11T03:57:54.405Z,72.01
2019-03-11T04:00:23.487Z,72.77
2019-03-11T04:02:52.521Z,72.60
2019-03-11T04:05:21.526Z,72.79
2019-03-11T04:07:50.555Z,72.51
2019-03-11T04:10:19.593Z,72.83
2019-03-11T04:12:48.741Z,72.83
2019-03-11T04:15:18.277Z,72.77
2019-03-11T04:17:47.972Z,73.37
2019-03-11T04:20:18.077Z,73.35
2019-03-11T04:22:47.123Z,73.09
2019-03-11T04:25:16.214Z,73.70
2019-03-11T04:27:45.786Z,73.45
2019-03-11T04:30:19.828Z,73.23
2019-03-11T04:32:48.846Z,73.81
2019-03-11T04:35:18.644Z,73.62
2019-03-11T04:37:47.995Z,73.62
2019-03-11T04:40:17.618Z,73.97
2019-03-11T04:42:46.914Z,73.76
2019-03-11T04:45:15.972Z,73.55
2019-03-11T04:47:45.015Z,73.60
2019-03-11T04:50:14.510Z,73.97
2019-03-11T04:52:43.554Z,74.04
2019-03-11T04:55:12.923Z,74.83
2019-03-11T04:57:43.877Z,74.72
2019-03-11T05:00:15.258Z,74.53
2019-03-11T05:02:44.291Z,74.85
2019-03-11T05:05:13.340Z,73.90
2019-03-11T05:07:42.684Z,74.24
2019-03-11T05:10:11.957Z,74.04
2019-03-11T05:12:41.077Z,73.62
2019-03-11T05:15:10.471Z,73.67
2019-03-11T05:17:39.504Z,73.63
2019-03-11T05:20:08.950Z,73.34
2019-03-11T05:22:37.952Z,73.08
2019-03-11T05:25:07.452Z,72.84
2019-03-11T05:27:36.796Z,72.44
2019-03-11T05:30:06.906Z,72.24
2019-03-11T05:32:36.233Z,72.54
2019-03-11T05:35:05.582Z,72.76
2019-03-11T05:37:35.337Z,72.27
2019-03-11T05:40:05.398Z,72.83
2019-03-11T05:42:34.434Z,72.93
2019-03-11T05:45:03.446Z,73.11
2019-03-11T05:47:32.520Z,72.99
2019-03-11T05:50:01.552Z,72.82
2019-03-11T05:52:30.555Z,73.11
2019-03-11T05:54:59.600Z,72.48
2019-03-11T05:57:28.626Z,72.78
2019-03-11T05:59:57.672Z,72.83
2019-03-11T06:02:26.714Z,72.64
2019-03-11T06:04:56.150Z,72.85
2019-03-11T06:07:25.526Z,73.11
2019-03-11T06:09:54.504Z,72.96
2019-03-11T06:12:23.642Z,72.94
2019-03-11T06:14:52.659Z,72.57
2019-03-11T06:17:21.666Z,72.51
2019-03-11T06:19:57.822Z,72.07
2019-03-11T06:22:29.437Z,72.13
2019-03-11T06:24:58.799Z,71.70
2019-03-11T06:27:28.212Z,71.26
2019-03-11T06:29:57.275Z,72.15
2019-03-11T06:32:26.310Z,71.73
2019-03-11T06:34:55.330Z,71.77
2019-03-11T06:37:24.351Z,71.67
2019-03-11T06:39:53.389Z,71.49
2019-03-11T06:42:22.508Z,72.21
2019-03-11T06:44:51.516Z,72.12
2019-03-11T06:47:21.278Z,71.56
2019-03-11T06:49:50.282Z,71.91
2019-03-11T06:52:19.572Z,72.03
2019-03-11T06:54:49.009Z,72.00
2019-03-11T06:57:18.013Z,71.33
2019-03-11T06:59:47.056Z,71.62
2019-03-11T07:02:16.114Z,71.19
2019-03-11T07:04:45.164Z,71.09
2019-03-11T07:07:14.895Z,70.23
2019-03-11T07:09:43.908Z,70.56
2019-03-11T07:12:13.335Z,70.39
2019-03-11T07:14:42.369Z,70.35
2019-03-11T07:17:11.423Z,70.19
2019-03-11T07:19:40.484Z,69.69
2019-03-11T07:22:09.494Z,69.59
2019-03-11T07:24:38.556Z,70.11
2019-03-11T07:27:07.620Z,69.90
2019-03-11T07:29:36.653Z,69.78
2019-03-11T07:32:05.656Z,69.37
2019-03-11T07:34:34.711Z,69.42
2019-03-11T07:37:03.785Z,69.56
2019-03-11T07:39:32.842Z,69.40
2019-03-11T07:42:01.847Z,69.14
2019-03-11T07:44:30.880Z,69.62
2019-03-11T07:46:59.885Z,68.80
2019-03-11T07:49:31.786Z,69.36
2019-03-11T07:52:02.629Z,70.68
2019-03-11T07:54:35.727Z,71.90
2019-03-11T07:57:02.367Z,71.87
2019-03-11T07:59:31.424Z,71.20
2019-03-11T08:02:00.539Z,70.88
2019-03-11T08:04:29.913Z,71.05
2019-03-11T08:06:58.925Z,70.32
2019-03-11T08:09:37.251Z,70.21
2019-03-11T08:11:59.350Z,70.02
2019-03-11T08:14:28.775Z,69.61
2019-03-11T08:16:57.765Z,69.80
2019-03-11T08:19:26.787Z,69.17
2019-03-11T08:21:56.158Z,69.07
2019-03-11T08:24:25.195Z,70.41
2019-03-11T08:26:54.221Z,70.26
2019-03-11T08:29:23.208Z,69.28
2019-03-11T08:31:52.211Z,69.33
2019-03-11T08:34:21.243Z,69.29
2019-03-11T08:36:50.257Z,69.54
2019-03-11T08:39:19.287Z,67.44
2019-03-11T08:41:48.736Z,67.41
2019-03-11T08:44:18.155Z,67.17
2019-03-11T08:46:47.205Z,67.40
2019-03-11T08:49:16.254Z,67.17
2019-03-11T08:51:45.285Z,67.22
2019-03-11T08:54:14.417Z,67.19
2019-03-11T08:56:43.712Z,66.84
2019-03-11T08:59:13.051Z,67.57
2019-03-11T09:01:42.177Z,68.02
2019-03-11T09:04:11.554Z,67.59
2019-03-11T09:06:41.354Z,67.53
2019-03-11T09:09:12.024Z,68.12
2019-03-11T09:11:41.023Z,65.79
2019-03-11T09:14:10.086Z,65.75
2019-03-11T09:16:39.917Z,60.22
2019-03-11T09:19:09.178Z,61.08
2019-03-11T09:21:38.717Z,63.14
2019-03-11T09:24:18.406Z,62.59
2019-03-11T09:26:38.906Z,63.27
2019-03-11T09:29:07.943Z,63.94
2019-03-11T09:31:37.306Z,64.20
2019-03-11T09:34:06.701Z,65.34
2019-03-11T09:36:35.716Z,65.55
2019-03-11T09:39:05.786Z,65.64
2019-03-11T09:41:34.800Z,65.27
2019-03-11T09:44:04.163Z,66.06
2019-03-11T09:46:33.224Z,64.90
2019-03-11T09:49:02.257Z,64.05
2019-03-11T09:51:31.276Z,64.70
2019-03-11T09:54:00.685Z,65.03
2019-03-11T09:56:29.921Z,65.14
2019-03-11T09:58:58.989Z,65.64
2019-03-11T10:01:28.367Z,64.36
2019-03-11T10:03:57.407Z,63.02
2019-03-11T10:06:26.996Z,57.87
2019-03-11T10:08:56.388Z,53.03
2019-03-11T10:11:26.142Z,49.59
2019-03-11T10:13:55.213Z,45.58
2019-03-11T10:16:24.677Z,43.61
2019-03-11T10:18:54.005Z,48.20
2019-03-11T10:21:23.022Z,46.01
2019-03-11T10:23:52.298Z,43.58
2019-03-11T10:26:21.341Z,45.39
2019-03-11T10:28:50.707Z,44.52
2019-03-11T10:31:19.736Z,46.01
2019-03-11T10:33:48.765Z,47.27
2019-03-11T10:36:17.813Z,47.04
2019-03-11T10:38:46.863Z,48.97
2019-03-11T10:41:15.905Z,48.64
2019-03-11T10:43:44.977Z,49.26
2019-03-11T10:46:14.027Z,47.38
2019-03-11T10:48:43.050Z,46.93
2019-03-11T10:51:12.457Z,51.01
2019-03-11T10:53:41.475Z,50.48
2019-03-11T10:56:11.257Z,47.41
2019-03-11T10:58:40.313Z,45.10
2019-03-11T11:01:09.915Z,44.04
2019-03-11T11:03:39.099Z,42.78
2019-03-11T11:06:08.230Z,44.56
2019-03-11T11:08:37.910Z,42.29
2019-03-11T11:11:06.940Z,44.61
2019-03-11T11:13:36.057Z,48.50
2019-03-11T11:16:05.491Z,50.21
2019-03-11T11:18:34.600Z,50.69
2019-03-11T11:21:04.368Z,51.73
2019-03-11T11:23:33.770Z,52.21
2019-03-11T11:26:03.127Z,53.00
2019-03-11T11:28:32.157Z,54.18
2019-03-11T11:31:01.213Z,50.09
2019-03-11T11:33:30.260Z,49.46
2019-03-11T11:35:59.288Z,46.65
2019-03-11T11:38:28.634Z,44.54
2019-03-11T11:40:57.691Z,46.65
2019-03-11T11:43:26.998Z,48.50
2019-03-11T11:45:56.351Z,53.05
2019-03-11T11:48:25.935Z,52.34
2019-03-11T11:50:54.976Z,53.83
2019-03-11T11:53:25.193Z,51.97
2019-03-11T11:55:57.930Z,51.09
2019-03-11T11:58:25.227Z,52.58
2019-03-11T12:00:54.271Z,53.51
2019-03-11T12:03:23.340Z,52.32
2019-03-11T12:05:59.910Z,54.24
2019-03-11T12:08:29.242Z,53.59
2019-03-11T12:10:58.255Z,53.59
2019-03-11T12:13:27.629Z,54.52
2019-03-11T12:15:56.780Z,54.22
2019-03-11T12:18:26.188Z,56.34
2019-03-11T12:20:55.641Z,56.86
2019-03-11T12:23:24.779Z,55.17
2019-03-11T12:25:53.825Z,56.73
2019-03-11T12:28:23.179Z,57.60
2019-03-11T12:30:52.229Z,57.34
2019-03-11T12:33:21.296Z,56.91
2019-03-11T12:35:50.336Z,59.61
2019-03-11T12:38:19.385Z,57.10
2019-03-11T12:40:48.908Z,58.97
2019-03-11T12:43:17.974Z,58.59
2019-03-11T12:45:47.362Z,56.81
2019-03-11T12:48:16.368Z,54.50
2019-03-11T12:50:46.004Z,51.29
2019-03-11T12:53:17.661Z,46.80
2019-03-11T12:55:47.423Z,45.76
2019-03-11T12:58:16.747Z,46.86
2019-03-11T13:00:46.135Z,50.30
2019-03-11T13:03:15.243Z,53.77
2019-03-11T13:05:44.251Z,50.19
2019-03-11T13:08:13.290Z,50.08
2019-03-11T13:10:42.291Z,48.75
2019-03-11T13:13:11.419Z,48.44
2019-03-11T13:15:40.469Z,47.93
2019-03-11T13:18:29.774Z,47.26
2019-03-11T13:20:59.373Z,47.15
2019-03-11T13:23:28.572Z,44.90
2019-03-11T13:25:57.584Z,42.67
2019-03-11T13:28:26.626Z,41.73
2019-03-11T13:30:56.093Z,42.61
2019-03-11T13:33:25.487Z,41.34
2019-03-11T13:35:56.630Z,40.27
2019-03-11T13:38:25.628Z,41.02
2019-03-11T13:40:54.902Z,42.19
2019-03-11T13:43:23.983Z,44.40
2019-03-11T13:45:52.993Z,45.63
2019-03-11T13:48:22.074Z,45.47
2019-03-11T13:50:51.075Z,46.06
2019-03-11T13:53:20.076Z,44.15
2019-03-11T13:55:49.104Z,44.68
2019-03-11T13:58:18.409Z,46.63
2019-03-11T14:00:56.443Z,48.77
2019-03-11T14:03:19.276Z,47.29
2019-03-11T14:05:48.411Z,48.59
2019-03-11T14:08:17.776Z,48.35
2019-03-11T14:10:46.790Z,49.58
2019-03-11T14:13:17.074Z,49.43
2019-03-11T14:15:46.478Z,47.79
2019-03-11T14:18:15.496Z,47.42
2019-03-11T14:20:44.496Z,49.51
2019-03-11T14:23:13.582Z,50.31
2019-03-11T14:25:43.012Z,49.68
2019-03-11T14:28:13.966Z,53.36
2019-03-11T14:30:43.218Z,53.45
2019-03-11T14:33:12.899Z,54.20
2019-03-11T14:35:41.906Z,55.22
2019-03-11T14:38:10.976Z,54.81
2019-03-11T14:40:40.420Z,54.85
2019-03-11T14:43:09.762Z,54.02
2019-03-11T14:45:39.096Z,56.55
2019-03-11T14:48:08.112Z,54.49
2019-03-11T14:50:37.242Z,54.61
2019-03-11T14:53:06.306Z,52.87
2019-03-11T14:55:35.411Z,51.45
2019-03-11T14:58:04.438Z,51.45
2019-03-11T15:00:33.484Z,55.42
2019-03-11T15:03:02.875Z,53.08
2019-03-11T15:05:32.267Z,54.65
2019-03-11T15:08:01.293Z,58.90
2019-03-11T15:10:30.360Z,58.90
2019-03-11T15:12:59.430Z,55.15
2019-03-11T15:15:28.801Z,55.23
2019-03-11T15:17:57.916Z,57.19
2019-03-11T15:20:27.304Z,54.67
2019-03-11T15:23:05.920Z,54.65
2019-03-11T15:25:27.505Z,55.32
2019-03-11T15:27:56.643Z,55.03
2019-03-11T15:30:26.230Z,49.81
2019-03-11T15:32:55.315Z,49.84
2019-03-11T15:35:24.481Z,50.17
2019-03-11T15:37:54.198Z,48.71
2019-03-11T15:40:23.240Z,51.88
2019-03-11T15:42:52.636Z,50.11
2019-03-11T15:45:21.673Z,50.11
2019-03-11T15:47:50.712Z,52.30
2019-03-11T15:50:22.319Z,54.05
2019-03-11T15:52:51.341Z,50.31
2019-03-11T15:55:20.422Z,53.29
2019-03-11T15:57:49.525Z,51.75
2019-03-11T16:00:19.733Z,50.29
2019-03-11T16:02:48.887Z,52.10
2019-03-11T16:05:19.052Z,55.53
2019-03-11T16:07:48.806Z,55.34
2019-03-11T16:10:18.457Z,55.41
2019-03-11T16:12:47.715Z,50.80
2019-03-11T16:15:16.978Z,53.84
2019-03-11T16:17:46.334Z,54.97
2019-03-11T16:20:16.704Z,54.97
2019-03-11T16:22:45.791Z,50.59
2019-03-11T16:25:15.376Z,53.78
2019-03-11T16:27:44.483Z,49.10
2019-03-11T16:30:18.475Z,50.88
2019-03-11T16:32:58.387Z,53.83
2019-03-11T16:35:19.265Z,51.62
2019-03-11T16:37:48.643Z,53.22
2019-03-11T16:40:17.664Z,51.83
2019-03-11T16:42:46.710Z,55.81
2019-03-11T16:45:16.847Z,53.75
2019-03-11T16:47:46.269Z,52.92
2019-03-11T16:50:16.455Z,52.06
2019-03-11T16:52:45.887Z,53.09
2019-03-11T16:55:16.392Z,54.16
2019-03-11T16:57:45.489Z,54.84
2019-03-11T17:00:16.962Z,53.15
2019-03-11T17:02:46.016Z,54.02
2019-03-11T17:05:15.048Z,53.62
2019-03-11T17:07:44.445Z,54.62
2019-03-11T17:10:14.177Z,53.88
2019-03-11T17:12:43.219Z,56.11
2019-03-11T17:15:12.660Z,55.16
2019-03-11T17:17:41.714Z,57.99
2019-03-11T17:20:11.953Z,54.48
2019-03-11T17:22:41.378Z,56.69
2019-03-11T17:25:11.159Z,57.80
2019-03-11T17:27:40.221Z,55.73
2019-03-11T17:30:11.426Z,57.97
2019-03-11T17:32:40.818Z,57.87
2019-03-11T17:35:10.448Z,57.65
2019-03-11T17:37:39.498Z,58.56
2019-03-11T17:40:10.587Z,59.21
2019-03-11T17:42:39.690Z,58.39
2019-03-11T17:45:09.923Z,59.44
2019-03-11T17:47:38.982Z,60.26
2019-03-11T17:50:10.082Z,61.73
2019-03-11T17:52:39.096Z,60.59
2019-03-11T17:55:08.745Z,60.41
2019-03-11T17:57:38.061Z,61.11
2019-03-11T18:00:10.767Z,59.74
2019-03-11T18:02:39.815Z,59.97
2019-03-11T18:05:08.857Z,60.08
2019-03-11T18:07:37.944Z,61.37
2019-03-11T18:10:07.277Z,61.58
2019-03-11T18:12:36.646Z,62.48
2019-03-11T18:15:06.080Z,65.22
2019-03-11T18:17:35.676Z,62.13
2019-03-11T18:20:04.850Z,60.83
2019-03-11T18:22:34.265Z,60.14
2019-03-11T18:25:03.971Z,60.33
2019-03-11T18:27:33.078Z,60.49
2019-03-11T18:30:02.467Z,61.76
2019-03-11T18:32:32.011Z,61.50
2019-03-11T18:35:01.577Z,62.01
2019-03-11T18:37:30.699Z,62.43
2019-03-11T18:39:59.760Z,63.36
2019-03-11T18:42:29.135Z,63.77
2019-03-11T18:44:58.501Z,62.91
2019-03-11T18:47:27.578Z,63.60
2019-03-11T18:49:56.686Z,64.47
2019-03-11T18:52:25.967Z,64.21
2019-03-11T18:54:55.464Z,64.61
2019-03-11T18:57:24.495Z,66.19
2019-03-11T18:59:53.759Z,66.39
2019-03-11T19:02:23.130Z,67.40
2019-03-11T19:04:52.370Z,67.15
2019-03-11T19:07:23.452Z,67.11
2019-03-11T19:09:52.977Z,67.12
2019-03-11T19:12:22.001Z,67.26
2019-03-11T19:14:51.704Z,66.59
2019-03-11T19:17:20.812Z,66.77
2019-03-11T19:19:49.894Z,67.54
2019-03-11T19:22:19.732Z,68.06
2019-03-11T19:24:48.731Z,68.27
2019-03-11T19:27:19.219Z,68.71
2019-03-11T19:29:48.276Z,69.36
2019-03-11T19:32:17.349Z,69.30
2019-03-11T19:34:46.867Z,70.09
2019-03-11T19:37:16.349Z,71.02
2019-03-11T19:39:45.843Z,70.65
2019-03-11T19:42:14.864Z,70.12
2019-03-11T19:44:43.998Z,69.30
2019-03-11T19:47:13.444Z,70.14
2019-03-11T19:49:43.197Z,68.40
2019-03-11T19:52:12.679Z,66.60
2019-03-11T19:54:41.983Z,67.22
2019-03-11T19:57:12.324Z,67.52
2019-03-11T19:59:41.763Z,67.01
2019-03-11T20:02:11.255Z,67.05
2019-03-11T20:04:41.192Z,67.63
2019-03-11T20:07:10.302Z,68.21
2019-03-11T20:09:40.180Z,68.52
2019-03-11T20:12:09.301Z,68.03
2019-03-11T20:14:38.405Z,67.94
2019-03-11T20:17:08.214Z,68.13
2019-03-11T20:19:37.302Z,68.29
2019-03-11T20:22:06.464Z,68.47
2019-03-11T20:24:35.898Z,68.85
2019-03-11T20:27:05.008Z,69.60
2019-03-11T20:29:34.346Z,70.48
2019-03-11T20:32:03.502Z,71.54
2019-03-11T20:34:32.680Z,70.98
2019-03-11T20:37:01.792Z,70.19
2019-03-11T20:39:30.748Z,70.77
2019-03-11T20:42:00.008Z,71.74
2019-03-11T20:44:29.179Z,70.61
2019-03-11T20:46:58.232Z,70.72
2019-03-11T20:49:29.451Z,69.48
2019-03-11T20:51:58.138Z,69.61
2019-03-11T20:54:27.208Z,71.12
2019-03-11T20:56:56.218Z,70.00
2019-03-11T20:59:25.656Z,71.06
2019-03-11T21:01:54.712Z,71.73
2019-03-11T21:04:24.605Z,71.29
2019-03-11T21:06:53.770Z,69.96
2019-03-11T21:09:23.160Z,70.59
2019-03-11T21:11:54.621Z,71.02
2019-03-11T21:14:22.917Z,71.25
2019-03-11T21:16:52.216Z,71.06
2019-03-11T21:19:21.306Z,71.14
2019-03-11T21:21:50.714Z,71.35
2019-03-11T21:24:19.770Z,71.61
2019-03-11T21:26:48.821Z,71.29
2019-03-11T21:29:17.909Z,71.36
2019-03-11T21:31:46.990Z,70.80
2019-03-11T21:34:16.245Z,71.07
2019-03-11T21:36:45.398Z,71.47
2019-03-11T21:39:14.761Z,72.48
2019-03-11T21:41:43.946Z,72.99
2019-03-11T21:44:13.010Z,73.23
2019-03-11T21:46:42.279Z,74.99
2019-03-11T21:49:11.966Z,75.48
2019-03-11T21:51:40.992Z,75.63
2019-03-11T21:54:10.145Z,76.41
2019-03-11T21:56:39.489Z,76.35
2019-03-11T21:59:08.587Z,76.04
2019-03-11T22:01:37.643Z,75.78
2019-03-11T22:04:06.668Z,75.84
2019-03-11T22:06:36.101Z,76.44
2019-03-11T22:09:06.968Z,76.43
2019-03-11T22:11:36.115Z,77.15
2019-03-11T22:14:05.144Z,77.16
2019-03-11T22:16:34.689Z,77.49
2019-03-11T22:19:04.105Z,76.71
2019-03-11T22:21:33.174Z,77.14
2019-03-11T22:24:02.561Z,76.38
2019-03-11T22:26:31.573Z,76.27
2019-03-11T22:29:00.698Z,76.16
2019-03-11T22:31:29.905Z,76.63
2019-03-11T22:33:58.943Z,76.68
2019-03-11T22:36:28.007Z,76.60
2019-03-11T22:38:56.984Z,76.36
2019-03-11T22:41:26.038Z,76.98
2019-03-11T22:43:55.045Z,77.05
2019-03-11T22:46:24.040Z,77.21
2019-03-11T22:48:53.068Z,76.39
2019-03-11T22:51:22.136Z,76.53
2019-03-11T22:53:51.919Z,77.33
2019-03-11T22:56:21.086Z,77.28
2019-03-11T22:58:50.135Z,77.50
2019-03-11T23:01:20.603Z,77.72
2019-03-11T23:03:50.780Z,77.06
2019-03-11T23:06:19.805Z,78.03
2019-03-11T23:08:48.959Z,78.20
2019-03-11T23:11:18.109Z,78.51
2019-03-11T23:13:47.131Z,79.17
2019-03-11T23:16:16.165Z,79.57
2019-03-11T23:18:45.570Z,79.85
2019-03-11T23:21:15.537Z,80.21
2019-03-11T23:23:44.923Z,80.62
2019-03-11T23:26:14.016Z,79.57
2019-03-11T23:28:43.420Z,80.98
2019-03-11T23:31:12.487Z,79.73
2019-03-11T23:33:41.531Z,79.48
2019-03-11T23:36:10.579Z,79.29
2019-03-11T23:38:39.611Z,79.14
2019-03-11T23:41:08.737Z,79.50
2019-03-11T23:43:37.779Z,79.37
2019-03-11T23:46:07.097Z,80.67
2019-03-11T23:48:36.195Z,80.56
2019-03-11T23:51:05.321Z,80.65
2019-03-11T23:53:34.698Z,80.87
2019-03-11T23:56:03.732Z,81.31
2019-03-11T23:58:32.753Z,81.97
